Time;durP1;ratioP1;P1;durP2;ratioP2;P2;SDS_P1;SDS_P2;PMS_P1;PMS_P2;Temp;Humidity;BMP_temperature;BMP_pressure;BME280_temperature;BME280_humidity;BME280_pressure;Samples;Min_cycle;Max_cycle;Signal;HPM_P1;HPM_P2
2022/06/25 00:02:03;;;;;;;12.07;7.30;;;;;;;17.05;86.72;100775.94;5012762;28;20085;-76
2022/06/25 00:07:16;;;;;;;14.57;7.43;;;;;;;17.07;86.73;100778.53;5011570;28;20047;-75
2022/06/25 00:09:44;;;;;;;10.10;7.50;;;;;;;17.06;86.75;100774.97;5012460;28;20042;-76
2022/06/25 00:15:08;;;;;;;10.65;7.25;;;;;;;17.06;86.77;100782.13;5007534;28;20063;-75
2022/06/25 00:17:35;;;;;;;8.65;6.68;;;;;;;17.04;86.65;100787.53;4996911;28;20046;-76
2022/06/25 00:20:05;;;;;;;7.95;6.97;;;;;;;17.03;86.58;100785.84;5010331;28;20604;-75
2022/06/25 00:22:33;;;;;;;6.82;5.55;;;;;;;17.03;86.65;100785.84;5011774;28;20501;-76
2022/06/25 00:25:03;;;;;;;9.00;6.93;;;;;;;17.04;86.45;100790.19;5010373;28;20050;-76
2022/06/25 00:27:31;;;;;;;7.45;6.75;;;;;;;17.05;86.68;100785.75;5009831;28;20097;-77
2022/06/25 00:29:59;;;;;;;8.15;6.30;;;;;;;17.05;86.59;100783.91;5002345;28;20050;-77
2022/06/25 00:32:26;;;;;;;8.13;6.32;;;;;;;17.04;86.35;100786.69;5010365;28;20117;-76
2022/06/25 00:34:54;;;;;;;8.07;5.90;;;;;;;17.03;86.49;100791.16;5008478;28;20049;-77
2022/06/25 00:37:23;;;;;;;11.05;6.28;;;;;;;17.02;86.48;100791.22;5003553;28;20053;-76
2022/06/25 00:39:50;;;;;;;6.47;5.68;;;;;;;17.03;86.39;100791.16;5010130;28;20045;-79
2022/06/25 00:42:18;;;;;;;5.78;5.18;;;;;;;17.03;86.42;100787.63;5010642;28;20051;-77
2022/06/25 00:44:45;;;;;;;6.30;4.85;;;;;;;17.03;86.26;100788.50;5017200;28;20097;-78
2022/06/25 00:47:14;;;;;;;7.82;4.72;;;;;;;17.03;86.21;100788.50;5007413;28;20051;-78
2022/06/25 00:49:43;;;;;;;5.68;4.80;;;;;;;17.04;86.30;100792.84;5011689;28;20611;-77
2022/06/25 00:52:15;;;;;;;6.20;4.35;;;;;;;17.05;86.17;100794.56;5010683;28;20046;-78
2022/06/25 00:55:08;;;;;;;5.40;4.30;;;;;;;17.05;85.57;100801.72;5007689;28;20453;-77
2022/06/25 00:57:40;;;;;;;4.88;4.10;;;;;;;17.06;85.67;100806.09;5024649;28;20059;-79
2022/06/25 01:00:17;;;;;;;5.78;4.00;;;;;;;17.08;85.63;100805.06;5006652;28;20043;-78
2022/06/25 01:02:47;;;;;;;7.55;3.80;;;;;;;17.08;85.32;100810.38;4998224;28;20591;-79
2022/06/25 01:05:15;;;;;;;9.95;3.80;;;;;;;17.08;85.09;100809.53;5011356;28;20511;-77
2022/06/25 01:07:47;;;;;;;4.85;3.30;;;;;;;17.06;84.91;100809.59;5025587;28;20057;-75
2022/06/25 01:10:16;;;;;;;7.30;3.80;;;;;;;17.04;84.74;100816.81;5008953;28;20498;-77
2022/06/25 01:12:45;;;;;;;5.60;3.30;;;;;;;17.04;84.57;100822.16;5011472;28;20050;-77
2022/06/25 01:15:17;;;;;;;4.22;3.05;;;;;;;17.02;84.38;100824.06;5024158;28;20105;-76
2022/06/25 01:17:51;;;;;;;4.60;3.05;;;;;;;17.01;84.55;100824.13;5012562;28;20038;-80
2022/06/25 01:20:25;;;;;;;6.03;2.92;;;;;;;17.02;84.43;100825.84;5008260;28;20046;-79
2022/06/25 01:22:54;;;;;;;4.18;3.00;;;;;;;17.03;84.40;100825.78;5011387;28;20772;-80
2022/06/25 01:25:24;;;;;;;6.03;2.97;;;;;;;17.03;84.23;100833.78;5014216;28;20038;-78
2022/06/25 01:27:52;;;;;;;4.05;2.85;;;;;;;17.03;84.21;100831.09;5005727;28;20059;-77
2022/06/25 01:30:19;;;;;;;4.05;3.08;;;;;;;17.04;83.91;100839.94;4991573;28;20444;-76
2022/06/25 01:32:47;;;;;;;4.68;2.92;;;;;;;17.01;83.75;100833.00;5007934;28;20043;-76
2022/06/25 01:35:16;;;;;;;4.20;2.63;;;;;;;17.01;83.96;100838.31;5008982;28;20480;-77
2022/06/25 01:37:44;;;;;;;7.43;3.03;;;;;;;17.01;83.67;100840.09;5017039;28;20042;-77
2022/06/25 01:40:11;;;;;;;3.78;3.00;;;;;;;17.00;83.63;100843.72;5010276;28;20093;-75
2022/06/25 01:45:29;;;;;;;6.22;3.17;;;;;;;17.00;84.01;100841.06;5009900;28;20066;-76
2022/06/25 01:47:58;;;;;;;3.10;2.80;;;;;;;16.97;83.76;100847.41;5006514;28;20119;-77
2022/06/25 01:50:27;;;;;;;4.75;2.88;;;;;;;16.96;83.85;100847.53;4991974;28;20051;-77
2022/06/25 01:52:55;;;;;;;4.45;2.97;;;;;;;16.95;83.98;100851.97;5007845;28;20043;-77
2022/06/25 01:55:22;;;;;;;6.15;3.20;;;;;;;16.96;84.11;100852.84;5005730;28;20046;-75
2022/06/25 01:57:51;;;;;;;3.88;2.78;;;;;;;16.96;84.10;100852.84;5022937;28;20093;-78
2022/06/25 02:00:24;;;;;;;3.28;2.80;;;;;;;16.96;84.17;100860.84;5021485;28;20050;-77
2022/06/25 02:02:57;;;;;;;5.13;3.13;;;;;;;16.95;84.27;100861.78;5011280;28;20540;-76
2022/06/25 02:08:17;;;;;;;5.18;3.30;;;;;;;16.91;84.22;100858.41;5027543;28;20093;-76
2022/06/25 02:10:49;;;;;;;5.60;2.97;;;;;;;16.91;84.26;100869.06;5013601;28;20170;-76
2022/06/25 02:13:17;;;;;;;4.90;3.20;;;;;;;16.90;84.22;100870.00;5013371;28;20265;-73
2022/06/25 02:15:44;;;;;;;3.65;3.28;;;;;;;16.87;84.38;100875.47;5012763;28;20093;-75
2022/06/25 02:18:12;;;;;;;4.72;3.40;;;;;;;16.85;84.39;100875.56;5008362;28;20051;-78
2022/06/25 02:20:41;;;;;;;5.45;3.30;;;;;;;16.84;84.33;100881.00;5009193;28;20070;-78
2022/06/25 02:23:10;;;;;;;5.97;3.13;;;;;;;16.79;84.55;100873.25;5016453;28;20042;-76
2022/06/25 02:25:38;;;;;;;5.43;3.03;;;;;;;16.76;84.38;100871.63;5010677;28;20042;-77
2022/06/25 02:28:15;;;;;;;5.70;3.47;;;;;;;16.74;84.40;100883.31;5006323;28;20043;-77
2022/06/25 02:30:45;;;;;;;4.20;3.40;;;;;;;16.72;84.60;100879.84;4994782;28;20051;-77
2022/06/25 02:33:15;;;;;;;4.80;3.22;;;;;;;16.68;84.76;100886.31;5004432;28;20713;-79
2022/06/25 02:35:44;;;;;;;4.40;3.90;;;;;;;16.68;84.67;100896.97;5009334;28;20105;-78
2022/06/25 02:38:14;;;;;;;5.65;4.05;;;;;;;16.63;84.85;100897.22;5009224;28;20118;-76
2022/06/25 02:40:43;;;;;;;8.65;3.70;;;;;;;16.61;84.83;100901.75;5007582;28;20047;-79
2022/06/25 02:43:11;;;;;;;6.25;3.83;;;;;;;16.58;85.02;100901.91;4992873;28;20051;-77
2022/06/25 02:45:42;;;;;;;7.45;4.20;;;;;;;16.55;85.07;100913.59;5010823;28;20042;-75
2022/06/25 02:48:10;;;;;;;5.85;4.13;;;;;;;16.52;84.95;100915.56;5006685;28;20500;-75
2022/06/25 02:50:40;;;;;;;8.48;4.75;;;;;;;16.47;85.54;100918.47;5013856;28;20046;-74
2022/06/25 02:53:10;;;;;;;6.25;4.82;;;;;;;16.43;85.16;100915.09;5008187;28;20118;-75
2022/06/25 03:01:14;;;;;;;9.48;4.47;;;;;;;16.34;85.45;100926.22;5021050;28;20054;-76
2022/06/25 03:03:41;;;;;;;6.13;4.38;;;;;;;16.33;85.53;100923.66;5009095;28;20051;-76
2022/06/25 03:06:08;;;;;;;5.25;4.70;;;;;;;16.30;85.70;100922.88;5009770;28;20044;-75
2022/06/25 03:08:36;;;;;;;4.68;4.18;;;;;;;16.26;85.65;100929.31;5017722;28;20515;-76
2022/06/25 03:11:03;;;;;;;6.10;4.78;;;;;;;16.24;85.77;100925.00;5006273;28;20042;-76
2022/06/25 03:13:33;;;;;;;5.65;4.28;;;;;;;16.22;85.87;100926.91;5026165;28;20059;-75
2022/06/25 03:16:06;;;;;;;5.65;4.60;;;;;;;16.20;85.99;100928.78;5001750;28;20035;-76
2022/06/25 03:18:35;;;;;;;7.05;4.70;;;;;;;16.19;85.97;100924.41;5000695;28;20479;-76
2022/06/25 03:21:29;;;;;;;5.93;4.43;;;;;;;16.17;86.08;100927.16;4999526;28;20042;-77
2022/06/25 03:24:01;;;;;;;10.57;4.40;;;;;;;16.16;86.15;100930.75;5028530;28;20046;-77
2022/06/25 03:26:29;;;;;;;5.50;4.47;;;;;;;16.14;86.03;100921.97;5003395;28;20050;-77
2022/06/25 03:28:56;;;;;;;6.57;4.75;;;;;;;16.13;86.09;100920.25;5014243;28;20046;-77
2022/06/25 03:31:25;;;;;;;7.70;4.60;;;;;;;16.12;86.17;100922.06;5011538;28;20050;-76
2022/06/25 03:33:59;;;;;;;5.05;4.55;;;;;;;16.12;86.11;100929.19;5024228;28;20202;-76
2022/06/25 03:36:49;;;;;;;7.43;4.72;;;;;;;16.11;86.17;100933.66;5026937;28;20042;-76
2022/06/25 03:39:17;;;;;;;5.35;4.75;;;;;;;16.13;86.21;100933.56;5010231;28;20544;-75
2022/06/25 03:41:45;;;;;;;6.10;4.80;;;;;;;16.15;86.20;100939.66;5022773;28;20090;-75
2022/06/25 03:44:32;;;;;;;7.25;5.43;;;;;;;16.21;86.07;100936.66;5008567;28;21206;-75
2022/06/25 03:47:08;;;;;;;7.47;5.13;;;;;;;16.46;85.45;100938.88;5011271;28;20046;-76
2022/06/25 03:49:36;;;;;;;8.65;4.88;;;;;;;16.52;85.19;100942.19;5003538;28;20051;-75
2022/06/25 03:52:11;;;;;;;5.45;4.70;;;;;;;16.51;85.21;100938.63;5025907;28;20047;-78
2022/06/25 03:54:38;;;;;;;7.22;5.25;;;;;;;16.53;85.14;100943.91;4999544;28;20044;-74
2022/06/25 03:57:05;;;;;;;11.13;5.40;;;;;;;16.59;85.10;100941.75;5010996;28;20173;-75
2022/06/25 03:59:49;;;;;;;6.10;4.90;;;;;;;16.64;85.10;100945.97;5026831;28;20046;-75
2022/06/25 04:02:24;;;;;;;6.35;4.35;;;;;;;16.62;85.11;100938.06;5010275;28;20676;-78
2022/06/25 04:05:11;;;;;;;6.25;4.72;;;;;;;16.64;84.95;100945.97;5030011;28;20065;-76
2022/06/25 04:07:38;;;;;;;7.05;4.50;;;;;;;16.70;84.95;100946.50;5009787;28;20076;-77
2022/06/25 04:10:09;;;;;;;8.75;4.53;;;;;;;16.85;84.39;100951.91;5009914;28;20073;-75
2022/06/25 04:12:36;;;;;;;6.57;4.43;;;;;;;16.86;84.49;100949.19;5021650;28;20121;-75
2022/06/25 04:15:04;;;;;;;5.80;4.40;;;;;;;16.94;84.11;100947.91;5008098;28;20133;-76
2022/06/25 04:17:33;;;;;;;6.25;4.60;;;;;;;16.95;84.23;100950.50;5017927;28;20125;-77
2022/06/25 04:20:02;;;;;;;8.00;4.65;;;;;;;17.02;83.83;100943.91;5010101;28;20491;-78
2022/06/25 04:22:32;;;;;;;5.43;4.10;;;;;;;17.18;83.75;100946.56;5011236;28;20133;-76
2022/06/25 04:25:02;;;;;;;5.30;4.43;;;;;;;17.27;83.32;100954.97;5009231;28;20050;-76
2022/06/25 04:30:16;;;;;;;5.30;4.32;;;;;;;17.31;83.38;100952.03;5011858;28;20042;-77
2022/06/25 04:32:47;;;;;;;7.93;4.70;;;;;;;17.35;83.35;100955.38;5009851;28;20046;-78
2022/06/25 04:35:16;;;;;;;8.40;4.25;;;;;;;17.40;83.31;100958.63;5009004;28;20042;-78
2022/06/25 04:37:49;;;;;;;5.15;3.85;;;;;;;17.51;83.21;100963.38;5008953;28;20042;-78
2022/06/25 04:40:19;;;;;;;7.67;3.93;;;;;;;17.60;83.20;100962.00;5010393;28;20042;-73
2022/06/25 04:42:49;;;;;;;5.00;4.47;;;;;;;17.68;82.72;100970.41;5027666;28;20105;-72
2022/06/25 04:45:17;;;;;;;4.43;4.03;;;;;;;17.77;82.34;100966.31;5003839;28;20793;-73
2022/06/25 04:48:04;;;;;;;6.00;4.22;;;;;;;17.88;82.32;100974.53;4999030;28;20773;-72
2022/06/25 04:50:49;;;;;;;6.65;4.13;;;;;;;17.95;81.90;100964.38;5011728;28;20047;-76
2022/06/25 04:53:17;;;;;;;7.63;4.45;;;;;;;18.01;81.90;100969.38;5009371;28;20050;-78
2022/06/25 04:55:44;;;;;;;5.93;4.60;;;;;;;18.09;81.18;100977.78;5010234;28;20066;-76
2022/06/25 04:58:11;;;;;;;7.80;4.50;;;;;;;18.20;81.33;100979.78;5006277;28;20105;-77
2022/06/25 05:00:42;;;;;;;10.93;4.28;;;;;;;18.33;81.05;100987.91;5009824;28;20093;-73
2022/06/25 05:03:10;;;;;;;6.00;4.30;;;;;;;18.42;80.66;100978.50;5007863;28;20460;-75
2022/06/25 05:05:45;;;;;;;6.80;4.20;;;;;;;18.51;80.62;100985.09;5008851;28;20046;-75
2022/06/25 05:08:15;;;;;;;5.93;3.83;;;;;;;18.58;80.38;100987.25;5020982;28;20077;-75
2022/06/25 05:10:43;;;;;;;5.03;4.15;;;;;;;18.65;79.98;100993.09;5007696;28;20054;-76
2022/06/25 05:13:13;;;;;;;5.47;4.03;;;;;;;18.83;79.31;100993.75;5006789;28;20070;-75
2022/06/25 05:15:43;;;;;;;10.00;4.10;;;;;;;19.07;79.21;100995.88;5025601;28;20472;-77
2022/06/25 05:18:12;;;;;;;5.22;3.72;;;;;;;19.71;77.44;101001.50;5023096;28;20039;-75
2022/06/25 05:20:43;;;;;;;9.32;4.32;;;;;;;20.61;74.54;100995.44;5006404;28;20035;-77
2022/06/25 05:23:12;;;;;;;5.75;3.72;;;;;;;21.23;73.00;101003.59;5008140;28;20559;-74
2022/06/25 05:25:41;;;;;;;5.97;3.78;;;;;;;21.34;71.96;100992.97;5010106;28;20042;-74
2022/06/25 05:28:09;;;;;;;9.38;3.92;;;;;;;23.11;67.32;100993.75;5011116;28;20043;-74
2022/06/25 05:30:38;;;;;;;7.43;3.10;;;;;;;25.34;60.87;100994.69;5010313;28;20093;-75
2022/06/25 05:33:05;;;;;;;9.73;3.13;;;;;;;26.46;57.12;100982.59;5012689;28;20057;-75
2022/06/25 05:35:34;;;;;;;9.82;2.88;;;;;;;27.54;52.96;100982.06;5006906;28;20423;-75
2022/06/25 05:38:08;;;;;;;4.38;2.42;;;;;;;28.57;48.50;100986.91;5021166;28;20035;-76
2022/06/25 05:40:36;;;;;;;7.95;2.40;;;;;;;29.26;47.23;100989.56;5011211;28;20038;-72
2022/06/25 05:43:04;;;;;;;3.95;2.28;;;;;;;30.02;45.15;100994.06;5026000;28;20042;-72
2022/06/25 05:45:32;;;;;;;4.90;2.22;;;;;;;30.92;43.12;100993.03;5019311;28;20817;-73
2022/06/25 05:48:00;;;;;;;5.93;2.30;;;;;;;31.37;41.47;100987.03;5000914;28;20125;-74
2022/06/25 05:50:28;;;;;;;2.92;1.73;;;;;;;31.54;39.62;100991.34;5015670;28;20057;-73
2022/06/25 05:52:56;;;;;;;3.42;2.00;;;;;;;31.37;40.08;100992.47;5012268;28;20527;-72
2022/06/25 05:55:24;;;;;;;5.95;2.35;;;;;;;31.65;39.51;100991.94;5014220;28;20042;-73
2022/06/25 05:57:52;;;;;;;7.63;2.35;;;;;;;32.09;38.41;100991.25;5012657;28;20490;-75
2022/06/25 06:00:19;;;;;;;7.63;2.10;;;;;;;32.20;38.36;101000.84;5005163;28;20105;-76
2022/06/25 06:02:47;;;;;;;4.38;2.00;;;;;;;32.73;37.29;100997.22;5007258;28;20050;-77
2022/06/25 06:05:15;;;;;;;2.78;1.70;;;;;;;33.29;36.96;101002.97;5011141;28;20057;-77
2022/06/25 06:07:42;;;;;;;2.25;1.73;;;;;;;33.86;33.92;100997.72;5011129;28;20511;-75
2022/06/25 06:10:09;;;;;;;7.40;2.00;;;;;;;33.94;34.13;101004.06;5010073;28;20567;-74
2022/06/25 06:12:37;;;;;;;6.18;1.75;;;;;;;33.36;34.89;101004.97;5003828;28;20101;-75
2022/06/25 06:15:05;;;;;;;3.58;1.70;;;;;;;33.22;34.64;101012.16;4995595;28;20065;-75
2022/06/25 06:17:32;;;;;;;5.60;1.60;;;;;;;33.39;33.92;101010.91;5010846;28;20492;-75
2022/06/25 06:20:00;;;;;;;7.00;1.75;;;;;;;32.93;34.89;101017.47;5011173;28;20042;-75
2022/06/25 06:22:28;;;;;;;6.95;1.90;;;;;;;32.11;36.14;101015.59;5009274;28;20124;-74
2022/06/25 06:24:55;;;;;;;2.72;1.40;;;;;;;30.40;38.25;101023.44;5018965;28;20120;-74
2022/06/25 06:27:22;;;;;;;3.97;1.80;;;;;;;28.16;43.34;101030.00;5021570;28;20141;-73
2022/06/25 06:29:50;;;;;;;2.25;1.45;;;;;;;26.56;46.38;101032.06;5008467;28;20452;-74
2022/06/25 06:32:17;;;;;;;4.88;1.90;;;;;;;25.40;49.00;101037.34;5010034;28;20920;-76
2022/06/25 06:34:45;;;;;;;4.43;1.70;;;;;;;24.47;50.90;101037.31;5009789;28;20038;-73
2022/06/25 06:37:12;;;;;;;4.93;1.88;;;;;;;23.75;52.87;101036.19;5020767;28;20137;-72
2022/06/25 06:39:45;;;;;;;2.85;1.90;;;;;;;23.23;54.21;101037.66;5006818;28;20038;-74
2022/06/25 06:42:13;;;;;;;7.78;2.08;;;;;;;22.84;55.94;101039.84;5009039;28;20121;-73
2022/06/25 06:44:41;;;;;;;3.35;1.70;;;;;;;22.56;56.63;101049.22;5006948;28;20043;-73
2022/06/25 06:47:08;;;;;;;3.03;1.65;;;;;;;22.34;58.01;101043.66;5009115;28;20070;-72
2022/06/25 06:49:37;;;;;;;3.90;1.90;;;;;;;22.19;58.53;101039.47;5009304;28;20042;-72
2022/06/25 06:52:05;;;;;;;5.85;1.92;;;;;;;22.07;58.68;101033.22;5007372;28;20049;-72
2022/06/25 06:54:32;;;;;;;4.88;1.90;;;;;;;21.99;59.10;101032.91;5010025;28;20046;-73
2022/06/25 06:56:59;;;;;;;3.97;1.92;;;;;;;21.91;59.34;101030.84;5009124;28;20046;-72
2022/06/25 06:59:27;;;;;;;4.88;1.90;;;;;;;21.85;59.47;101037.53;5008787;28;20564;-75
2022/06/25 07:01:54;;;;;;;5.38;2.00;;;;;;;21.81;60.00;101032.50;5012413;28;20516;-73
2022/06/25 07:04:21;;;;;;;4.70;2.05;;;;;;;21.82;60.24;101035.06;5008570;28;20069;-75
2022/06/25 07:06:49;;;;;;;3.88;2.10;;;;;;;21.89;60.40;101040.81;5007946;28;20122;-73
2022/06/25 07:09:18;;;;;;;4.05;1.63;;;;;;;22.01;61.15;101039.91;5011898;28;20043;-75
2022/06/25 07:11:45;;;;;;;5.43;2.00;;;;;;;22.13;60.19;101040.78;5008537;28;20081;-74
2022/06/25 07:14:13;;;;;;;6.63;2.17;;;;;;;22.19;59.67;101039.47;5000769;28;20106;-73
2022/06/25 07:16:41;;;;;;;4.95;2.00;;;;;;;22.25;59.88;101040.84;5008662;28;20062;-73
2022/06/25 07:19:10;;;;;;;4.00;1.90;;;;;;;22.31;59.97;101043.91;5007634;28;20044;-73
2022/06/25 07:21:38;;;;;;;5.97;1.90;;;;;;;22.37;59.88;101045.25;5007909;28;20114;-72
2022/06/25 07:24:06;;;;;;;3.08;1.73;;;;;;;22.49;59.49;101043.47;5009198;28;20043;-72
2022/06/25 07:26:35;;;;;;;4.70;1.80;;;;;;;22.68;60.37;101060.84;5010486;28;20049;-73
2022/06/25 07:29:02;;;;;;;4.60;2.03;;;;;;;22.85;58.39;101054.16;5010812;28;20089;-74
2022/06/25 07:31:30;;;;;;;5.47;2.30;;;;;;;22.97;58.16;101058.56;5007018;28;20625;-75
2022/06/25 07:33:57;;;;;;;3.33;1.90;;;;;;;22.91;58.34;101061.72;5009319;28;20047;-73
2022/06/25 07:36:25;;;;;;;6.30;2.15;;;;;;;22.76;58.99;101061.09;5010961;28;20038;-74
2022/06/25 07:38:52;;;;;;;4.07;2.00;;;;;;;22.81;59.33;101061.59;5009614;28;20038;-74
2022/06/25 07:41:19;;;;;;;6.32;1.95;;;;;;;22.95;59.19;101058.66;5008347;28;20042;-73
2022/06/25 07:43:46;;;;;;;3.88;1.83;;;;;;;22.99;59.48;101056.59;5010111;28;20133;-73
2022/06/25 07:46:14;;;;;;;3.17;1.80;;;;;;;23.18;58.41;101055.97;5005376;28;20054;-73
2022/06/25 07:48:41;;;;;;;5.80;1.98;;;;;;;23.27;57.83;101052.56;5007796;28;20054;-74
2022/06/25 07:53:54;;;;;;;5.88;1.83;;;;;;;23.53;57.87;101060.34;5008365;28;20050;-72
2022/06/25 07:56:22;;;;;;;3.35;2.05;;;;;;;23.42;57.66;101052.31;5013523;28;20058;-75
2022/06/25 07:58:50;;;;;;;5.63;1.83;;;;;;;23.40;57.85;101052.41;5008114;28;20056;-74
2022/06/25 08:01:17;;;;;;;3.90;1.80;;;;;;;23.34;57.31;101052.94;5009214;28;20039;-71
2022/06/25 08:03:46;;;;;;;3.95;1.70;;;;;;;23.26;56.93;101058.06;5009568;28;21617;-71
2022/06/25 08:06:13;;;;;;;6.80;1.75;;;;;;;23.17;56.43;101059.63;5008664;28;20068;-72
2022/06/25 08:08:41;;;;;;;3.40;1.75;;;;;;;23.16;57.45;101057.06;5007878;28;20475;-72
2022/06/25 08:11:09;;;;;;;3.58;1.67;;;;;;;23.28;56.79;101056.13;5008280;28;20046;-72
2022/06/25 08:13:37;;;;;;;3.08;1.40;;;;;;;23.47;57.45;101063.53;5011089;28;20054;-74
2022/06/25 08:16:05;;;;;;;5.18;1.70;;;;;;;23.72;56.74;101059.69;5007805;28;20447;-74
2022/06/25 08:18:38;;;;;;;3.70;1.70;;;;;;;23.88;56.32;101056.56;5009624;28;20054;-73
2022/06/25 08:21:06;;;;;;;2.92;1.88;;;;;;;23.74;57.47;101056.88;5007016;28;20125;-72
2022/06/25 08:23:34;;;;;;;3.70;1.65;;;;;;;23.64;56.91;101061.31;5008331;28;20047;-75
2022/06/25 08:26:02;;;;;;;5.38;2.00;;;;;;;23.58;57.45;101066.19;5003866;28;20046;-75
2022/06/25 08:28:29;;;;;;;6.57;1.65;;;;;;;23.56;57.57;101065.47;5008600;28;20046;-71
2022/06/25 08:30:56;;;;;;;3.40;1.48;;;;;;;23.41;57.89;101064.88;5005362;28;20085;-73
2022/06/25 08:33:48;;;;;;;6.53;1.60;;;;;;;23.54;55.49;101066.56;5008249;28;20042;-70
2022/06/25 08:36:16;;;;;;;4.35;1.50;;;;;;;23.60;56.55;101063.41;5005910;28;20097;-73
2022/06/25 08:38:43;;;;;;;4.03;1.88;;;;;;;23.73;56.08;101065.94;5008412;28;20050;-72
2022/06/25 08:41:10;;;;;;;3.88;1.50;;;;;;;23.91;56.64;101066.22;5007440;28;20046;-73
2022/06/25 08:43:40;;;;;;;3.67;1.30;;;;;;;24.14;55.95;101074.22;5006887;28;20043;-71
2022/06/25 08:46:07;;;;;;;2.45;1.30;;;;;;;24.27;54.47;101076.72;5011087;28;20050;-71
2022/06/25 08:48:37;;;;;;;2.78;1.27;;;;;;;24.24;54.75;101072.47;5007399;28;20485;-74
2022/06/25 08:51:05;;;;;;;3.05;1.30;;;;;;;24.09;54.57;101079.16;5004679;28;20046;-72
2022/06/25 08:53:35;;;;;;;2.67;1.23;;;;;;;23.85;54.40;101082.88;5004510;28;20711;-75
2022/06/25 08:56:02;;;;;;;4.78;1.33;;;;;;;23.81;55.60;101078.75;5007648;28;20042;-73
2022/06/25 08:58:30;;;;;;;2.65;1.05;;;;;;;23.96;56.04;101085.56;5007227;28;20053;-71
2022/06/25 09:00:57;;;;;;;5.25;1.20;;;;;;;24.10;56.53;101088.97;5007408;28;20045;-73
2022/06/25 09:03:25;;;;;;;3.92;1.25;;;;;;;24.22;55.29;101087.91;5013256;28;20053;-71
2022/06/25 09:05:52;;;;;;;3.05;1.17;;;;;;;24.34;54.63;101086.03;5009612;28;20035;-72
2022/06/25 09:08:20;;;;;;;3.97;1.27;;;;;;;24.54;54.47;101087.00;5012213;28;20096;-73
2022/06/25 09:10:54;;;;;;;5.03;1.15;;;;;;;24.66;53.64;101077.84;5008201;28;21037;-74
2022/06/25 09:13:25;;;;;;;6.20;1.20;;;;;;;24.63;54.62;101077.28;5010598;28;20117;-70
2022/06/25 09:15:54;;;;;;;3.35;1.10;;;;;;;24.48;54.17;101076.75;5013325;28;20049;-71
2022/06/25 09:18:21;;;;;;;4.95;1.30;;;;;;;24.27;54.53;101085.69;5009459;28;20062;-72
2022/06/25 09:21:07;;;;;;;2.85;1.08;;;;;;;24.00;56.08;101086.16;5008246;28;20066;-72
2022/06/25 09:23:56;;;;;;;3.00;1.05;;;;;;;23.75;56.41;101082.81;5012136;28;20097;-75
2022/06/25 09:26:23;;;;;;;3.30;1.10;;;;;;;23.60;56.79;101075.97;5011470;28;20047;-74
2022/06/25 09:28:50;;;;;;;2.80;1.00;;;;;;;23.45;57.00;101073.59;5010885;28;20117;-73
2022/06/25 09:31:37;;;;;;;3.40;0.90;;;;;;;23.31;56.95;101074.69;5009493;28;20042;-75
2022/06/25 09:34:07;;;;;;;2.67;0.98;;;;;;;23.25;57.90;101061.75;5007974;28;20117;-73
2022/06/25 09:36:39;;;;;;;3.80;0.98;;;;;;;23.29;57.64;101073.09;5008634;28;20118;-73
2022/06/25 09:39:06;;;;;;;2.17;1.05;;;;;;;23.30;58.00;101072.97;5007937;28;20093;-76
2022/06/25 09:41:50;;;;;;;4.95;1.20;;;;;;;23.35;57.34;101075.31;5007013;28;20066;-75
2022/06/25 09:44:18;;;;;;;2.00;0.85;;;;;;;23.32;58.19;101076.38;5006492;28;20043;-73
2022/06/25 09:46:57;;;;;;;3.13;1.30;;;;;;;23.32;57.44;101084.47;5009809;28;20054;-73
2022/06/25 09:49:28;;;;;;;3.15;1.13;;;;;;;23.36;57.19;101082.38;5011923;28;20042;-71
2022/06/25 09:52:01;;;;;;;2.38;1.00;;;;;;;23.43;57.43;101080.91;5011379;28;20052;-73
2022/06/25 09:54:31;;;;;;;5.18;1.35;;;;;;;23.55;57.04;101081.75;5011612;28;20043;-73
2022/06/25 09:57:01;;;;;;;2.85;1.10;;;;;;;23.68;56.88;101078.91;5010042;28;20046;-70
2022/06/25 09:59:34;;;;;;;2.00;0.98;;;;;;;23.88;56.98;101082.63;5008692;28;20042;-76
2022/06/25 10:02:03;;;;;;;6.00;1.00;;;;;;;24.23;55.58;101076.16;5012767;28;20030;-73
2022/06/25 10:04:31;;;;;;;1.77;0.80;;;;;;;24.49;55.64;101076.63;5007814;28;20043;-74
2022/06/25 10:07:09;;;;;;;3.65;0.98;;;;;;;24.67;55.21;101081.44;5008610;28;20062;-75
2022/06/25 10:09:40;;;;;;;2.72;1.10;;;;;;;24.78;54.45;101078.66;5009073;28;20046;-74
2022/06/25 10:12:09;;;;;;;3.67;1.10;;;;;;;24.84;54.66;101079.97;5002894;28;20057;-73
2022/06/25 10:14:37;;;;;;;3.92;0.90;;;;;;;24.86;53.97;101078.00;4999414;28;20047;-73
2022/06/25 10:17:05;;;;;;;2.15;1.00;;;;;;;24.84;53.83;101081.81;5002922;28;20049;-76
2022/06/25 10:19:34;;;;;;;1.48;0.80;;;;;;;24.69;53.81;101079.47;5010354;28;20042;-75
2022/06/25 10:22:03;;;;;;;9.00;1.65;;;;;;;24.50;54.00;101081.03;5024641;28;20050;-74
2022/06/25 10:24:31;;;;;;;3.80;1.40;;;;;;;24.28;55.03;101078.44;5009162;28;20035;-76
2022/06/25 10:26:59;;;;;;;3.20;0.93;;;;;;;24.03;54.90;101077.84;5008823;28;20105;-73
2022/06/25 10:29:28;;;;;;;3.65;1.00;;;;;;;23.80;55.80;101083.28;5006772;28;20042;-72
2022/06/25 10:32:17;;;;;;;2.28;1.23;;;;;;;23.63;56.45;101081.13;5007731;28;20047;-75
2022/06/25 10:35:02;;;;;;;4.25;1.17;;;;;;;23.47;56.97;101079.66;5009486;28;20049;-76
2022/06/25 10:37:59;;;;;;;2.10;1.08;;;;;;;23.34;57.17;101077.13;5006498;28;20038;-72
2022/06/25 10:40:28;;;;;;;3.28;1.23;;;;;;;23.23;57.74;101080.69;5009229;28;20038;-72
2022/06/25 10:43:01;;;;;;;2.58;1.20;;;;;;;23.20;57.98;101077.38;5008667;28;20188;-71
2022/06/25 10:45:32;;;;;;;2.17;1.30;;;;;;;23.26;58.46;101079.59;5008623;28;20133;-71
2022/06/25 10:48:01;;;;;;;6.43;1.15;;;;;;;23.35;58.25;101078.84;5005514;28;20050;-74
2022/06/25 10:50:32;;;;;;;2.75;1.20;;;;;;;23.50;58.06;101070.53;5007584;28;20054;-72
2022/06/25 10:53:06;;;;;;;5.80;1.50;;;;;;;23.63;58.22;101073.88;5005741;28;20039;-76
2022/06/25 10:55:56;;;;;;;4.50;1.48;;;;;;;23.79;58.01;101080.72;5004476;28;20042;-72
2022/06/25 10:58:27;;;;;;;3.83;1.58;;;;;;;23.91;56.48;101079.66;5006189;28;20815;-72
2022/06/25 11:01:02;;;;;;;3.10;1.27;;;;;;;23.95;56.02;101072.25;5002423;28;20039;-74
2022/06/25 11:03:32;;;;;;;3.60;1.70;;;;;;;23.91;55.46;101086.91;5005965;28;20093;-71
2022/06/25 11:06:23;;;;;;;5.20;1.20;;;;;;;23.81;56.50;101084.97;5003270;28;20679;-75
2022/06/25 11:08:52;;;;;;;3.95;1.67;;;;;;;23.71;57.21;101086.72;5004911;28;20069;-75
2022/06/25 11:11:31;;;;;;;3.97;1.30;;;;;;;23.67;57.40;101080.75;5002662;28;20038;-75
2022/06/25 11:14:03;;;;;;;4.00;1.33;;;;;;;23.69;57.80;101080.59;5005395;28;20105;-75
2022/06/25 11:16:31;;;;;;;5.35;1.15;;;;;;;23.78;57.73;101077.16;5018144;28;20041;-72
2022/06/25 11:19:00;;;;;;;7.85;1.58;;;;;;;23.84;57.70;101084.75;5005947;28;20053;-74
2022/06/25 11:21:30;;;;;;;3.22;1.35;;;;;;;23.86;55.90;101074.69;5003151;28;20101;-74
2022/06/25 11:24:22;;;;;;;2.83;1.30;;;;;;;23.92;56.79;101072.47;5001655;28;20034;-74
2022/06/25 11:29:47;;;;;;;3.10;1.65;;;;;;;24.21;56.68;101061.09;5005146;28;20070;-74
2022/06/25 11:32:22;;;;;;;4.88;1.55;;;;;;;24.38;55.45;101065.91;5008481;28;20806;-73
2022/06/25 11:34:58;;;;;;;6.82;1.50;;;;;;;24.56;55.60;101065.31;5008824;28;20125;-72
2022/06/25 11:37:30;;;;;;;7.90;1.40;;;;;;;24.94;54.26;101070.06;5007758;28;20065;-76
2022/06/25 11:39:58;;;;;;;2.60;1.30;;;;;;;25.06;53.78;101072.69;5008239;28;20069;-75
2022/06/25 11:42:25;;;;;;;9.52;1.40;;;;;;;25.50;52.98;101078.69;5009624;28;20042;-76
2022/06/25 11:44:56;;;;;;;3.30;1.30;;;;;;;25.66;51.88;101082.69;5009032;28;20595;-75
2022/06/25 11:47:29;;;;;;;2.83;1.20;;;;;;;25.70;50.84;101076.03;5007660;28;20046;-74
2022/06/25 11:49:59;;;;;;;5.13;1.20;;;;;;;25.85;50.68;101071.06;5011582;28;20101;-75
2022/06/25 11:52:26;;;;;;;5.68;1.30;;;;;;;25.96;52.06;101078.16;5008726;28;20176;-74
2022/06/25 11:54:54;;;;;;;3.03;1.40;;;;;;;25.98;51.74;101078.88;5011786;28;20073;-74
2022/06/25 11:57:25;;;;;;;4.75;1.10;;;;;;;25.96;50.53;101073.63;5005524;28;20057;-75
2022/06/25 11:59:54;;;;;;;1.88;0.90;;;;;;;26.01;50.85;101074.03;5007803;28;20501;-75
2022/06/25 12:02:24;;;;;;;4.03;1.00;;;;;;;26.07;51.53;101069.91;5006781;28;20050;-75
2022/06/25 12:05:00;;;;;;;2.75;1.08;;;;;;;26.31;50.51;101074.91;5003778;28;20047;-75